EGEO/OBN METAR and TAF weather

Enter ICAO airport designator
Station Type Date Time Source
EGEO METAR 2020/09/20 13:20 UTC NOAA

EGEO 201320Z 27012KT CAVOK 15/12 Q1023


Station Type Date Time Source
EGEO Decoded METAR 2020/09/20 13:20 UTC NOAA

Station name not available
Sep 20, 2020 - 09:20 AM EDT / 2020.09.20 1320 UTC
Wind: from the W (270 degrees) at 14 MPH (12 KT):0
Visibility: greater than 7 mile(s):0
Temperature: 59 F (15 C)
Dew Point: 53 F (12 C)
Relative Humidity: 82%
Pressure (altimeter): 30.21 in. Hg (1023 hPa)
ob: EGEO 201320Z 27012KT CAVOK 15/12 Q1023
cycle: 13

Station Type Date Time Source
EGEO TAF UTC NOAA

Error!

Example: see airport list